sensor_id;sensor_type;location;lat;lon;timestamp;temperature;humidity
22416;DHT22;12204;50.600;4.608;2023-06-22T00:00:59;27.40;62.60
22416;DHT22;12204;50.600;4.608;2023-06-22T00:06:03;27.40;63.50
22416;DHT22;12204;50.600;4.608;2023-06-22T00:11:08;27.40;62.60
22416;DHT22;12204;50.600;4.608;2023-06-22T00:16:11;27.40;63.40
22416;DHT22;12204;50.600;4.608;2023-06-22T00:21:14;27.40;62.80
22416;DHT22;12204;50.600;4.608;2023-06-22T00:26:19;27.40;62.80
22416;DHT22;12204;50.600;4.608;2023-06-22T00:31:24;27.40;62.80
22416;DHT22;12204;50.600;4.608;2023-06-22T00:36:29;27.40;62.70
22416;DHT22;12204;50.600;4.608;2023-06-22T00:41:33;27.40;62.70
22416;DHT22;12204;50.600;4.608;2023-06-22T00:46:39;27.40;62.60
22416;DHT22;12204;50.600;4.608;2023-06-22T00:51:42;27.40;62.50
22416;DHT22;12204;50.600;4.608;2023-06-22T00:56:48;27.40;62.60
22416;DHT22;12204;50.600;4.608;2023-06-22T01:01:55;27.50;62.60
22416;DHT22;12204;50.600;4.608;2023-06-22T01:07:08;27.40;62.40
22416;DHT22;12204;50.600;4.608;2023-06-22T01:12:18;27.40;62.40
22416;DHT22;12204;50.600;4.608;2023-06-22T01:17:23;27.40;62.50
22416;DHT22;12204;50.600;4.608;2023-06-22T01:22:30;27.40;62.40
22416;DHT22;12204;50.600;4.608;2023-06-22T01:27:45;27.40;62.10
22416;DHT22;12204;50.600;4.608;2023-06-22T01:32:57;27.40;62.20
22416;DHT22;12204;50.600;4.608;2023-06-22T01:38:04;27.40;62.00
22416;DHT22;12204;50.600;4.608;2023-06-22T01:43:08;27.40;62.20
22416;DHT22;12204;50.600;4.608;2023-06-22T01:48:13;27.40;62.00
22416;DHT22;12204;50.600;4.608;2023-06-22T01:53:17;27.40;61.90
22416;DHT22;12204;50.600;4.608;2023-06-22T01:58:21;27.40;61.60
22416;DHT22;12204;50.600;4.608;2023-06-22T02:03:32;27.40;62.80
22416;DHT22;12204;50.600;4.608;2023-06-22T02:08:41;27.40;62.10
22416;DHT22;12204;50.600;4.608;2023-06-22T02:13:51;27.40;61.60
22416;DHT22;12204;50.600;4.608;2023-06-22T02:18:56;27.40;61.40
22416;DHT22;12204;50.600;4.608;2023-06-22T02:24:08;27.30;61.20
22416;DHT22;12204;50.600;4.608;2023-06-22T02:29:12;27.40;61.20
22416;DHT22;12204;50.600;4.608;2023-06-22T02:34:18;27.40;61.10
22416;DHT22;12204;50.600;4.608;2023-06-22T02:39:22;27.30;61.00
22416;DHT22;12204;50.600;4.608;2023-06-22T02:44:27;27.30;61.10
22416;DHT22;12204;50.600;4.608;2023-06-22T02:49:32;27.40;61.10
22416;DHT22;12204;50.600;4.608;2023-06-22T02:54:35;27.40;60.90
22416;DHT22;12204;50.600;4.608;2023-06-22T02:59:38;27.30;60.70
22416;DHT22;12204;50.600;4.608;2023-06-22T03:04:46;27.30;60.60
22416;DHT22;12204;50.600;4.608;2023-06-22T03:09:51;27.30;60.60
22416;DHT22;12204;50.600;4.608;2023-06-22T03:14:54;27.30;60.40
22416;DHT22;12204;50.600;4.608;2023-06-22T03:19:59;27.30;60.50
22416;DHT22;12204;50.600;4.608;2023-06-22T03:25:03;27.30;60.40
22416;DHT22;12204;50.600;4.608;2023-06-22T03:30:13;27.30;60.80
22416;DHT22;12204;50.600;4.608;2023-06-22T03:35:18;27.40;60.70
22416;DHT22;12204;50.600;4.608;2023-06-22T03:40:23;27.40;60.70
22416;DHT22;12204;50.600;4.608;2023-06-22T03:45:27;27.30;60.60
22416;DHT22;12204;50.600;4.608;2023-06-22T03:50:32;27.30;60.60
22416;DHT22;12204;50.600;4.608;2023-06-22T03:55:35;27.30;60.60
22416;DHT22;12204;50.600;4.608;2023-06-22T04:00:39;27.40;60.60
22416;DHT22;12204;50.600;4.608;2023-06-22T04:05:44;27.30;60.60
22416;DHT22;12204;50.600;4.608;2023-06-22T04:10:48;27.40;60.60
22416;DHT22;12204;50.600;4.608;2023-06-22T04:15:51;27.30;60.80
22416;DHT22;12204;50.600;4.608;2023-06-22T04:20:56;27.30;59.10
22416;DHT22;12204;50.600;4.608;2023-06-22T04:26:00;27.30;57.80
22416;DHT22;12204;50.600;4.608;2023-06-22T04:31:03;27.20;57.50
22416;DHT22;12204;50.600;4.608;2023-06-22T04:36:08;27.10;57.20
22416;DHT22;12204;50.600;4.608;2023-06-22T04:41:15;27.10;57.00
22416;DHT22;12204;50.600;4.608;2023-06-22T04:46:26;27.00;57.50
22416;DHT22;12204;50.600;4.608;2023-06-22T04:51:30;27.00;56.90
22416;DHT22;12204;50.600;4.608;2023-06-22T04:56:34;26.90;56.80
22416;DHT22;12204;50.600;4.608;2023-06-22T05:01:37;26.90;57.10
22416;DHT22;12204;50.600;4.608;2023-06-22T05:06:42;26.90;57.30
22416;DHT22;12204;50.600;4.608;2023-06-22T05:11:47;26.80;57.40
22416;DHT22;12204;50.600;4.608;2023-06-22T05:16:50;26.80;57.50
22416;DHT22;12204;50.600;4.608;2023-06-22T05:21:56;26.80;57.60
22416;DHT22;12204;50.600;4.608;2023-06-22T05:26:59;26.80;57.70
22416;DHT22;12204;50.600;4.608;2023-06-22T05:32:03;26.70;57.80
22416;DHT22;12204;50.600;4.608;2023-06-22T05:37:10;26.70;57.80
22416;DHT22;12204;50.600;4.608;2023-06-22T05:42:14;26.70;57.90
22416;DHT22;12204;50.600;4.608;2023-06-22T05:47:18;26.70;58.20
22416;DHT22;12204;50.600;4.608;2023-06-22T05:52:23;26.70;58.40
22416;DHT22;12204;50.600;4.608;2023-06-22T05:57:26;26.60;58.40
22416;DHT22;12204;50.600;4.608;2023-06-22T06:02:29;26.60;58.50
22416;DHT22;12204;50.600;4.608;2023-06-22T06:07:34;26.60;58.80
22416;DHT22;12204;50.600;4.608;2023-06-22T06:12:39;26.60;58.90
22416;DHT22;12204;50.600;4.608;2023-06-22T06:17:46;26.60;59.10
22416;DHT22;12204;50.600;4.608;2023-06-22T06:22:52;26.60;59.20
22416;DHT22;12204;50.600;4.608;2023-06-22T06:27:55;26.50;59.30
22416;DHT22;12204;50.600;4.608;2023-06-22T06:32:59;26.50;59.40
22416;DHT22;12204;50.600;4.608;2023-06-22T06:38:04;26.50;59.60
22416;DHT22;12204;50.600;4.608;2023-06-22T06:43:07;26.50;59.70
22416;DHT22;12204;50.600;4.608;2023-06-22T06:48:11;26.50;59.90
22416;DHT22;12204;50.600;4.608;2023-06-22T06:53:16;26.50;60.10
22416;DHT22;12204;50.600;4.608;2023-06-22T06:58:19;26.50;60.30
22416;DHT22;12204;50.600;4.608;2023-06-22T07:03:24;26.50;60.40
22416;DHT22;12204;50.600;4.608;2023-06-22T07:08:29;26.50;60.50
22416;DHT22;12204;50.600;4.608;2023-06-22T07:13:32;26.60;61.50
22416;DHT22;12204;50.600;4.608;2023-06-22T07:18:36;26.50;61.70
22416;DHT22;12204;50.600;4.608;2023-06-22T07:23:41;26.50;61.80
22416;DHT22;12204;50.600;4.608;2023-06-22T07:28:44;26.60;61.90
22416;DHT22;12204;50.600;4.608;2023-06-22T07:33:48;26.50;61.90
22416;DHT22;12204;50.600;4.608;2023-06-22T07:38:52;26.50;62.00
22416;DHT22;12204;50.600;4.608;2023-06-22T07:43:56;26.50;61.80
22416;DHT22;12204;50.600;4.608;2023-06-22T07:49:00;26.60;62.00
22416;DHT22;12204;50.600;4.608;2023-06-22T07:54:06;26.60;62.00
22416;DHT22;12204;50.600;4.608;2023-06-22T07:59:09;26.60;62.00
22416;DHT22;12204;50.600;4.608;2023-06-22T08:04:13;26.60;61.80
22416;DHT22;12204;50.600;4.608;2023-06-22T08:09:18;26.60;61.90
22416;DHT22;12204;50.600;4.608;2023-06-22T08:14:21;26.60;62.20
22416;DHT22;12204;50.600;4.608;2023-06-22T08:19:25;26.60;62.40
22416;DHT22;12204;50.600;4.608;2023-06-22T08:24:29;26.60;62.20
22416;DHT22;12204;50.600;4.608;2023-06-22T08:29:34;26.70;62.20
22416;DHT22;12204;50.600;4.608;2023-06-22T08:34:38;26.60;62.20
22416;DHT22;12204;50.600;4.608;2023-06-22T08:39:45;26.60;61.90
22416;DHT22;12204;50.600;4.608;2023-06-22T08:44:49;26.60;61.70
22416;DHT22;12204;50.600;4.608;2023-06-22T08:49:53;26.60;61.90
22416;DHT22;12204;50.600;4.608;2023-06-22T08:54:58;26.60;61.90
22416;DHT22;12204;50.600;4.608;2023-06-22T09:00:01;26.60;62.10
22416;DHT22;12204;50.600;4.608;2023-06-22T09:05:09;26.70;62.40
22416;DHT22;12204;50.600;4.608;2023-06-22T09:10:14;26.60;62.50
22416;DHT22;12204;50.600;4.608;2023-06-22T09:15:18;26.60;62.90
22416;DHT22;12204;50.600;4.608;2023-06-22T09:20:22;26.60;63.10
22416;DHT22;12204;50.600;4.608;2023-06-22T09:25:27;26.70;63.40
22416;DHT22;12204;50.600;4.608;2023-06-22T09:30:31;26.60;63.70
22416;DHT22;12204;50.600;4.608;2023-06-22T09:35:35;26.70;64.10
22416;DHT22;12204;50.600;4.608;2023-06-22T09:40:40;26.70;64.70
22416;DHT22;12204;50.600;4.608;2023-06-22T09:45:43;26.70;65.00
22416;DHT22;12204;50.600;4.608;2023-06-22T09:50:47;26.70;65.00
22416;DHT22;12204;50.600;4.608;2023-06-22T09:55:52;26.70;65.30
22416;DHT22;12204;50.600;4.608;2023-06-22T10:00:55;26.70;65.70
22416;DHT22;12204;50.600;4.608;2023-06-22T10:05:59;26.80;65.90
22416;DHT22;12204;50.600;4.608;2023-06-22T10:11:04;26.80;66.40
22416;DHT22;12204;50.600;4.608;2023-06-22T10:16:08;26.70;66.60
22416;DHT22;12204;50.600;4.608;2023-06-22T10:21:11;26.70;66.70
22416;DHT22;12204;50.600;4.608;2023-06-22T10:26:16;26.70;66.90
22416;DHT22;12204;50.600;4.608;2023-06-22T10:31:19;26.70;66.90
22416;DHT22;12204;50.600;4.608;2023-06-22T10:36:23;26.70;66.90
22416;DHT22;12204;50.600;4.608;2023-06-22T10:41:28;26.70;67.10
22416;DHT22;12204;50.600;4.608;2023-06-22T10:46:32;26.70;67.00
22416;DHT22;12204;50.600;4.608;2023-06-22T10:51:36;26.60;66.90
22416;DHT22;12204;50.600;4.608;2023-06-22T10:56:41;26.70;67.00
22416;DHT22;12204;50.600;4.608;2023-06-22T11:01:44;26.60;67.70
22416;DHT22;12204;50.600;4.608;2023-06-22T11:06:49;26.60;66.80
22416;DHT22;12204;50.600;4.608;2023-06-22T11:11:55;26.60;66.70
22416;DHT22;12204;50.600;4.608;2023-06-22T11:17:01;26.60;66.70
22416;DHT22;12204;50.600;4.608;2023-06-22T11:22:05;26.50;66.70
22416;DHT22;12204;50.600;4.608;2023-06-22T11:27:10;26.50;66.80
22416;DHT22;12204;50.600;4.608;2023-06-22T11:32:13;26.50;66.90
22416;DHT22;12204;50.600;4.608;2023-06-22T11:37:17;26.50;66.90
22416;DHT22;12204;50.600;4.608;2023-06-22T11:42:22;26.50;66.90
22416;DHT22;12204;50.600;4.608;2023-06-22T11:47:27;26.50;67.00
22416;DHT22;12204;50.600;4.608;2023-06-22T11:52:31;26.50;67.00
22416;DHT22;12204;50.600;4.608;2023-06-22T11:57:36;26.40;67.00
22416;DHT22;12204;50.600;4.608;2023-06-22T12:02:41;26.40;66.90
22416;DHT22;12204;50.600;4.608;2023-06-22T12:07:45;26.40;67.00
22416;DHT22;12204;50.600;4.608;2023-06-22T12:12:49;26.30;67.00
22416;DHT22;12204;50.600;4.608;2023-06-22T12:17:53;26.30;66.80
22416;DHT22;12204;50.600;4.608;2023-06-22T12:22:58;26.30;66.80
22416;DHT22;12204;50.600;4.608;2023-06-22T12:28:03;26.30;66.80
22416;DHT22;12204;50.600;4.608;2023-06-22T12:33:07;26.30;66.70
22416;DHT22;12204;50.600;4.608;2023-06-22T12:38:10;26.30;66.80
22416;DHT22;12204;50.600;4.608;2023-06-22T12:43:15;26.30;66.80
22416;DHT22;12204;50.600;4.608;2023-06-22T12:48:19;26.20;66.90
22416;DHT22;12204;50.600;4.608;2023-06-22T12:53:22;26.20;66.80
22416;DHT22;12204;50.600;4.608;2023-06-22T12:58:30;26.20;66.80
22416;DHT22;12204;50.600;4.608;2023-06-22T13:03:33;26.10;67.10
22416;DHT22;12204;50.600;4.608;2023-06-22T13:08:37;26.10;67.20
22416;DHT22;12204;50.600;4.608;2023-06-22T13:13:45;26.10;67.20
22416;DHT22;12204;50.600;4.608;2023-06-22T13:18:49;26.10;67.40
22416;DHT22;12204;50.600;4.608;2023-06-22T13:23:52;26.10;67.90
22416;DHT22;12204;50.600;4.608;2023-06-22T13:28:57;26.10;67.40
22416;DHT22;12204;50.600;4.608;2023-06-22T13:34:01;26.10;67.60
22416;DHT22;12204;50.600;4.608;2023-06-22T13:39:04;26.10;67.60
22416;DHT22;12204;50.600;4.608;2023-06-22T13:44:09;26.10;67.70
22416;DHT22;12204;50.600;4.608;2023-06-22T13:49:13;26.10;67.70
22416;DHT22;12204;50.600;4.608;2023-06-22T13:54:16;26.10;67.80
22416;DHT22;12204;50.600;4.608;2023-06-22T13:59:24;26.10;67.90
22416;DHT22;12204;50.600;4.608;2023-06-22T14:04:29;26.10;67.80
22416;DHT22;12204;50.600;4.608;2023-06-22T14:09:33;26.20;67.80
22416;DHT22;12204;50.600;4.608;2023-06-22T14:14:38;26.20;68.00
22416;DHT22;12204;50.600;4.608;2023-06-22T14:19:42;26.20;68.00
22416;DHT22;12204;50.600;4.608;2023-06-22T14:24:45;26.10;67.90
22416;DHT22;12204;50.600;4.608;2023-06-22T14:29:51;26.20;67.90
22416;DHT22;12204;50.600;4.608;2023-06-22T14:34:55;26.10;67.90
22416;DHT22;12204;50.600;4.608;2023-06-22T14:39:58;26.20;68.00
22416;DHT22;12204;50.600;4.608;2023-06-22T14:45:04;26.10;67.90
22416;DHT22;12204;50.600;4.608;2023-06-22T14:50:09;26.10;67.90
22416;DHT22;12204;50.600;4.608;2023-06-22T14:55:12;26.10;68.00
22416;DHT22;12204;50.600;4.608;2023-06-22T15:00:20;26.20;68.10
22416;DHT22;12204;50.600;4.608;2023-06-22T15:05:24;26.20;68.00
22416;DHT22;12204;50.600;4.608;2023-06-22T15:10:27;26.20;68.00
22416;DHT22;12204;50.600;4.608;2023-06-22T15:15:33;26.20;68.80
22416;DHT22;12204;50.600;4.608;2023-06-22T15:20:36;26.20;67.90
22416;DHT22;12204;50.600;4.608;2023-06-22T15:25:40;26.20;67.90
22416;DHT22;12204;50.600;4.608;2023-06-22T15:30:45;26.20;68.40
22416;DHT22;12204;50.600;4.608;2023-06-22T15:35:50;26.30;69.00
22416;DHT22;12204;50.600;4.608;2023-06-22T15:40:54;26.30;69.30
22416;DHT22;12204;50.600;4.608;2023-06-22T15:45:59;26.30;69.50
22416;DHT22;12204;50.600;4.608;2023-06-22T15:51:03;26.30;69.60
22416;DHT22;12204;50.600;4.608;2023-06-22T15:56:06;26.30;69.70
22416;DHT22;12204;50.600;4.608;2023-06-22T16:01:12;26.30;69.40
22416;DHT22;12204;50.600;4.608;2023-06-22T16:06:16;26.30;69.90
22416;DHT22;12204;50.600;4.608;2023-06-22T16:11:20;26.30;69.70
22416;DHT22;12204;50.600;4.608;2023-06-22T16:16:25;26.30;69.50
22416;DHT22;12204;50.600;4.608;2023-06-22T16:21:28;26.30;69.20
22416;DHT22;12204;50.600;4.608;2023-06-22T16:26:38;26.30;69.10
22416;DHT22;12204;50.600;4.608;2023-06-22T16:31:44;26.20;68.90
22416;DHT22;12204;50.600;4.608;2023-06-22T16:36:47;26.20;69.70
22416;DHT22;12204;50.600;4.608;2023-06-22T16:41:54;26.20;69.40
22416;DHT22;12204;50.600;4.608;2023-06-22T16:46:59;26.20;69.00
22416;DHT22;12204;50.600;4.608;2023-06-22T16:52:04;26.10;69.30
22416;DHT22;12204;50.600;4.608;2023-06-22T16:57:09;26.10;69.20
22416;DHT22;12204;50.600;4.608;2023-06-22T17:02:17;26.10;69.20
22416;DHT22;12204;50.600;4.608;2023-06-22T17:07:22;26.00;69.30
22416;DHT22;12204;50.600;4.608;2023-06-22T17:12:28;26.00;69.50
22416;DHT22;12204;50.600;4.608;2023-06-22T17:17:33;26.10;70.00
22416;DHT22;12204;50.600;4.608;2023-06-22T17:22:38;26.00;69.80
22416;DHT22;12204;50.600;4.608;2023-06-22T17:27:41;26.10;70.00
22416;DHT22;12204;50.600;4.608;2023-06-22T17:32:47;26.10;70.60
22416;DHT22;12204;50.600;4.608;2023-06-22T17:37:52;26.10;70.00
22416;DHT22;12204;50.600;4.608;2023-06-22T17:43:02;26.10;70.00
22416;DHT22;12204;50.600;4.608;2023-06-22T17:48:09;26.10;70.00
22416;DHT22;12204;50.600;4.608;2023-06-22T17:53:13;26.10;69.80
22416;DHT22;12204;50.600;4.608;2023-06-22T17:58:17;26.10;69.70
22416;DHT22;12204;50.600;4.608;2023-06-22T18:03:24;26.10;70.70
22416;DHT22;12204;50.600;4.608;2023-06-22T18:08:28;26.10;69.80
22416;DHT22;12204;50.600;4.608;2023-06-22T18:13:33;26.10;69.80
22416;DHT22;12204;50.600;4.608;2023-06-22T18:18:39;26.10;69.70
22416;DHT22;12204;50.600;4.608;2023-06-22T18:23:43;26.10;69.70
22416;DHT22;12204;50.600;4.608;2023-06-22T18:28:50;26.10;69.70
22416;DHT22;12204;50.600;4.608;2023-06-22T18:33:57;26.00;69.70
22416;DHT22;12204;50.600;4.608;2023-06-22T18:39:02;26.10;69.70
22416;DHT22;12204;50.600;4.608;2023-06-22T18:44:11;26.10;69.50
22416;DHT22;12204;50.600;4.608;2023-06-22T18:49:24;26.10;69.60
22416;DHT22;12204;50.600;4.608;2023-06-22T18:54:33;26.10;69.50
22416;DHT22;12204;50.600;4.608;2023-06-22T18:59:46;26.10;69.40
22416;DHT22;12204;50.600;4.608;2023-06-22T19:05:05;26.10;69.60
22416;DHT22;12204;50.600;4.608;2023-06-22T19:10:22;26.10;69.80
22416;DHT22;12204;50.600;4.608;2023-06-22T19:15:31;26.10;69.90
22416;DHT22;12204;50.600;4.608;2023-06-22T19:20:37;26.10;69.90
22416;DHT22;12204;50.600;4.608;2023-06-22T19:25:45;26.10;69.90
22416;DHT22;12204;50.600;4.608;2023-06-22T19:30:49;26.10;70.00
22416;DHT22;12204;50.600;4.608;2023-06-22T19:36:00;26.10;69.80
22416;DHT22;12204;50.600;4.608;2023-06-22T19:41:06;26.10;69.80
22416;DHT22;12204;50.600;4.608;2023-06-22T19:46:12;26.10;69.80
22416;DHT22;12204;50.600;4.608;2023-06-22T19:51:17;26.10;69.70
22416;DHT22;12204;50.600;4.608;2023-06-22T19:56:20;26.10;69.30
22416;DHT22;12204;50.600;4.608;2023-06-22T20:01:24;26.00;69.00
22416;DHT22;12204;50.600;4.608;2023-06-22T20:06:28;26.00;69.00
22416;DHT22;12204;50.600;4.608;2023-06-22T20:11:33;26.00;68.90
22416;DHT22;12204;50.600;4.608;2023-06-22T20:16:46;26.00;68.90
22416;DHT22;12204;50.600;4.608;2023-06-22T20:21:57;26.00;68.90
22416;DHT22;12204;50.600;4.608;2023-06-22T20:27:10;26.00;68.90
22416;DHT22;12204;50.600;4.608;2023-06-22T20:32:15;26.00;69.10
22416;DHT22;12204;50.600;4.608;2023-06-22T20:37:20;25.90;69.30
22416;DHT22;12204;50.600;4.608;2023-06-22T20:42:24;25.80;69.70
22416;DHT22;12204;50.600;4.608;2023-06-22T20:47:27;25.80;69.80
22416;DHT22;12204;50.600;4.608;2023-06-22T20:52:32;25.80;69.90
22416;DHT22;12204;50.600;4.608;2023-06-22T20:57:36;25.80;69.70
22416;DHT22;12204;50.600;4.608;2023-06-22T21:02:39;25.90;69.50
22416;DHT22;12204;50.600;4.608;2023-06-22T21:07:44;25.90;69.40
22416;DHT22;12204;50.600;4.608;2023-06-22T21:12:49;26.00;69.40
22416;DHT22;12204;50.600;4.608;2023-06-22T21:17:52;26.00;69.20
22416;DHT22;12204;50.600;4.608;2023-06-22T21:22:57;26.00;69.90
22416;DHT22;12204;50.600;4.608;2023-06-22T21:28:00;26.00;69.00
22416;DHT22;12204;50.600;4.608;2023-06-22T21:33:04;26.00;69.00
22416;DHT22;12204;50.600;4.608;2023-06-22T21:38:09;26.10;69.00
22416;DHT22;12204;50.600;4.608;2023-06-22T21:43:13;26.10;69.00
22416;DHT22;12204;50.600;4.608;2023-06-22T21:48:16;26.10;69.30
22416;DHT22;12204;50.600;4.608;2023-06-22T21:53:22;26.10;68.80
22416;DHT22;12204;50.600;4.608;2023-06-22T21:58:28;26.10;68.80
22416;DHT22;12204;50.600;4.608;2023-06-22T22:03:31;26.10;68.50
22416;DHT22;12204;50.600;4.608;2023-06-22T22:08:36;26.10;68.30
22416;DHT22;12204;50.600;4.608;2023-06-22T22:13:40;26.10;68.50
22416;DHT22;12204;50.600;4.608;2023-06-22T22:18:44;26.20;68.90
22416;DHT22;12204;50.600;4.608;2023-06-22T22:23:49;26.20;69.10
22416;DHT22;12204;50.600;4.608;2023-06-22T22:28:53;26.20;69.00
22416;DHT22;12204;50.600;4.608;2023-06-22T22:33:56;26.20;69.00
22416;DHT22;12204;50.600;4.608;2023-06-22T22:39:01;26.20;68.70
22416;DHT22;12204;50.600;4.608;2023-06-22T22:44:06;26.20;69.50
22416;DHT22;12204;50.600;4.608;2023-06-22T22:49:10;26.30;68.70
22416;DHT22;12204;50.600;4.608;2023-06-22T22:54:15;26.30;68.50
22416;DHT22;12204;50.600;4.608;2023-06-22T22:59:20;26.30;68.30
22416;DHT22;12204;50.600;4.608;2023-06-22T23:04:23;26.30;68.00
22416;DHT22;12204;50.600;4.608;2023-06-22T23:09:28;26.30;68.10
22416;DHT22;12204;50.600;4.608;2023-06-22T23:14:32;26.30;67.90
22416;DHT22;12204;50.600;4.608;2023-06-22T23:19:35;26.30;67.80
22416;DHT22;12204;50.600;4.608;2023-06-22T23:24:40;26.30;67.50
22416;DHT22;12204;50.600;4.608;2023-06-22T23:29:43;26.30;67.30
22416;DHT22;12204;50.600;4.608;2023-06-22T23:34:47;26.20;67.10
22416;DHT22;12204;50.600;4.608;2023-06-22T23:39:52;26.20;66.80
22416;DHT22;12204;50.600;4.608;2023-06-22T23:44:55;26.30;67.10
22416;DHT22;12204;50.600;4.608;2023-06-22T23:49:58;26.20;66.40
22416;DHT22;12204;50.600;4.608;2023-06-22T23:55:04;26.20;66.10
